Time;durP1;ratioP1;P1;durP2;ratioP2;P2;SDS_P1;SDS_P2;PMS_P1;PMS_P2;Temp;Humidity;BMP_temperature;BMP_pressure;BME280_temperature;BME280_humidity;BME280_pressure;Samples;Min_cycle;Max_cycle;Signal;HPM_P1;HPM_P2
2023/03/02 00:01:23;;;;;;;12.02;2.63;;;11.50;99.90;;;;;;5110929;28;20082;-69
2023/03/02 00:03:50;;;;;;;14.20;2.20;;;11.50;99.90;;;;;;5111751;28;20131;-70
2023/03/02 00:06:16;;;;;;;;;;;11.50;99.90;;;;;;5111977;28;20032;-69
2023/03/02 00:08:43;;;;;;;18.55;2.83;;;11.50;99.90;;;;;;5111321;28;19903;-69
2023/03/02 00:11:10;;;;;;;16.88;2.78;;;11.50;99.90;;;;;;5111734;28;20102;-69
2023/03/02 00:13:37;;;;;;;;;;;11.50;99.90;;;;;;5111676;28;20035;-70
2023/03/02 00:16:04;;;;;;;14.82;2.35;;;11.50;99.90;;;;;;5092384;28;20152;-69
2023/03/02 00:18:30;;;;;;;9.95;2.00;;;11.50;99.90;;;;;;5092761;28;20036;-70
2023/03/02 00:20:57;;;;;;;11.70;2.05;;;11.50;99.90;;;;;;5111119;28;20051;-70
2023/03/02 00:23:23;;;;;;;;;;;11.60;99.90;;;;;;5111639;28;20095;-71
2023/03/02 00:25:49;;;;;;;13.57;2.83;;;11.60;99.90;;;;;;5111025;28;20335;-67
2023/03/02 00:28:15;;;;;;;15.82;2.55;;;11.60;99.90;;;;;;5110813;28;20181;-70
2023/03/02 00:30:41;;;;;;;12.82;2.25;;;11.60;99.90;;;;;;5092779;28;20051;-69
2023/03/02 00:33:07;;;;;;;5.17;1.73;;;11.60;99.90;;;;;;5111475;28;20494;-70
2023/03/02 00:35:37;;;;;;;11.43;2.35;;;11.60;99.90;;;;;;5111021;28;20078;-70
2023/03/02 00:38:03;;;;;;;9.85;1.73;;;11.60;99.90;;;;;;5111238;28;20478;-70
2023/03/02 00:40:31;;;;;;;13.93;2.20;;;11.60;99.90;;;;;;5111125;28;20020;-68
2023/03/02 00:42:58;;;;;;;15.15;2.13;;;11.60;99.90;;;;;;5110660;28;20027;-69
2023/03/02 00:45:25;;;;;;;12.30;2.38;;;11.60;99.90;;;;;;5110951;28;20016;-69
2023/03/02 00:47:51;;;;;;;13.05;1.92;;;11.60;99.90;;;;;;5111180;28;20035;-69
2023/03/02 00:50:17;;;;;;;18.35;2.65;;;11.60;99.90;;;;;;5110924;28;20057;-69
2023/03/02 00:52:43;;;;;;;13.98;2.40;;;11.60;99.90;;;;;;5111184;28;20098;-70
2023/03/02 00:55:09;;;;;;;7.80;1.70;;;11.50;99.90;;;;;;5111237;28;20111;-69
2023/03/02 00:57:42;;;;;;;13.23;2.53;;;11.50;99.90;;;;;;5110631;28;20028;-69
2023/03/02 01:00:09;;;;;;;11.07;2.45;;;11.50;99.90;;;;;;5110785;28;20038;-70
2023/03/02 01:02:37;;;;;;;8.98;2.22;;;11.50;99.90;;;;;;5111168;28;20046;-69
2023/03/02 01:05:04;;;;;;;11.52;2.45;;;11.40;99.90;;;;;;5093012;28;20024;-67
2023/03/02 01:07:30;;;;;;;12.80;2.22;;;11.40;99.90;;;;;;5110607;28;20083;-70
2023/03/02 01:09:56;;;;;;;16.70;2.65;;;11.50;99.90;;;;;;5113335;28;20463;-69
2023/03/02 01:12:23;;;;;;;15.18;2.65;;;11.50;99.90;;;;;;5114609;28;20034;-70
2023/03/02 01:14:50;;;;;;;15.23;2.53;;;11.50;99.90;;;;;;5114457;28;20099;-68
2023/03/02 01:17:18;;;;;;;15.13;2.88;;;11.50;99.90;;;;;;5079261;28;20042;-70
2023/03/02 01:19:45;;;;;;;11.95;3.10;;;11.50;99.90;;;;;;5114644;28;20079;-69
2023/03/02 01:22:13;;;;;;;12.13;2.83;;;11.50;99.90;;;;;;5114607;28;20391;-69
2023/03/02 01:24:40;;;;;;;14.68;2.63;;;11.50;99.90;;;;;;5114695;28;20359;-70
2023/03/02 01:27:12;;;;;;;14.13;2.30;;;11.50;99.90;;;;;;5113980;28;20051;-70
2023/03/02 01:29:38;;;;;;;13.77;2.25;;;11.50;99.90;;;;;;5114129;28;20046;-70
2023/03/02 01:32:04;;;;;;;15.13;2.63;;;11.50;99.90;;;;;;5114353;28;20468;-70
2023/03/02 01:34:30;;;;;;;13.45;2.40;;;11.50;99.90;;;;;;5114807;28;20035;-70
2023/03/02 01:36:56;;;;;;;13.60;2.28;;;11.50;99.90;;;;;;5114249;28;20119;-68
2023/03/02 01:39:22;;;;;;;14.05;2.45;;;11.50;99.90;;;;;;5096218;28;20110;-69
2023/03/02 01:41:51;;;;;;;12.30;2.10;;;11.60;99.90;;;;;;5113905;28;20035;-69
2023/03/02 01:44:50;;;;;;;12.70;2.63;;;11.50;99.90;;;;;;5113855;28;20051;-69
2023/03/02 01:47:38;;;;;;;12.90;2.20;;;11.50;99.90;;;;;;5113751;28;20039;-69
2023/03/02 01:50:26;;;;;;;9.68;2.03;;;11.60;99.90;;;;;;5114075;28;20104;-69
2023/03/02 01:52:54;;;;;;;15.60;3.10;;;11.60;99.90;;;;;;5095593;28;20066;-69
2023/03/02 01:55:24;;;;;;;15.40;2.50;;;11.50;99.90;;;;;;5113698;28;20027;-69
2023/03/02 01:57:53;;;;;;;16.38;2.70;;;11.50;99.90;;;;;;5113633;28;20383;-69
2023/03/02 02:00:24;;;;;;;13.77;2.45;;;11.60;99.90;;;;;;5113777;28;20039;-69
2023/03/02 02:02:51;;;;;;;11.43;2.10;;;11.50;99.90;;;;;;5095086;28;20475;-68
2023/03/02 02:05:24;;;;;;;14.43;2.05;;;11.50;99.90;;;;;;5095331;28;20381;-68
2023/03/02 02:07:50;;;;;;;11.98;2.95;;;11.50;99.90;;;;;;5113457;28;20035;-69
2023/03/02 02:10:16;;;;;;;18.10;2.40;;;11.50;99.90;;;;;;5113508;28;20023;-69
2023/03/02 02:12:42;;;;;;;12.35;2.60;;;11.50;99.90;;;;;;5113465;28;20046;-69
2023/03/02 02:15:09;;;;;;;8.98;2.05;;;11.50;99.90;;;;;;5113282;28;20363;-69
2023/03/02 02:17:35;;;;;;;13.73;2.45;;;11.50;99.90;;;;;;5113519;28;20034;-69
2023/03/02 02:20:09;;;;;;;12.63;2.50;;;11.50;99.90;;;;;;5112844;28;20024;-68
2023/03/02 02:23:02;;;;;;;16.48;2.42;;;11.50;99.90;;;;;;5113555;28;20502;-68
2023/03/02 02:25:38;;;;;;;18.33;2.75;;;11.50;99.90;;;;;;5094995;28;20449;-70
2023/03/02 02:28:10;;;;;;;16.98;2.88;;;11.50;99.90;;;;;;5112733;28;20493;-69
2023/03/02 02:30:39;;;;;;;13.82;2.63;;;11.50;99.90;;;;;;5113551;28;20023;-69
2023/03/02 02:33:08;;;;;;;11.30;2.58;;;11.50;99.90;;;;;;5094441;28;20034;-69
2023/03/02 02:35:37;;;;;;;14.50;2.20;;;11.40;99.90;;;;;;5112975;28;20015;-69
2023/03/02 02:38:05;;;;;;;14.77;2.42;;;11.50;99.90;;;;;;5112980;28;20100;-67
2023/03/02 02:40:49;;;;;;;19.15;2.50;;;11.50;99.90;;;;;;5112784;28;20103;-69
2023/03/02 02:43:18;;;;;;;13.13;2.58;;;11.40;99.90;;;;;;5112943;28;20027;-69
2023/03/02 02:45:45;;;;;;;15.38;2.00;;;11.50;99.90;;;;;;5112791;28;20035;-69
2023/03/02 02:48:15;;;;;;;;;;;11.50;99.90;;;;;;5094576;28;20217;-69
2023/03/02 02:50:43;;;;;;;16.88;3.10;;;11.50;99.90;;;;;;5112612;28;19910;-69
2023/03/02 02:53:23;;;;;;;14.43;2.28;;;11.50;99.90;;;;;;5112732;28;20016;-69
2023/03/02 02:55:53;;;;;;;13.15;2.60;;;11.50;99.90;;;;;;5112556;28;20416;-69
2023/03/02 02:58:26;;;;;;;14.82;2.90;;;11.50;99.90;;;;;;5112424;28;20024;-70
2023/03/02 03:00:54;;;;;;;16.88;2.35;;;11.50;99.90;;;;;;5112805;28;20084;-70
2023/03/02 03:03:34;;;;;;;16.05;2.60;;;11.50;99.90;;;;;;5112471;28;20032;-68
2023/03/02 03:06:13;;;;;;;17.58;3.00;;;11.50;99.90;;;;;;5112805;28;20532;-69
2023/03/02 03:08:44;;;;;;;11.82;2.25;;;11.50;99.90;;;;;;5112780;28;20081;-70
2023/03/02 03:11:13;;;;;;;12.98;2.65;;;11.60;99.90;;;;;;5112262;28;20035;-69
2023/03/02 03:13:42;;;;;;;17.20;2.20;;;11.60;99.90;;;;;;5112293;28;20084;-69
2023/03/02 03:16:13;;;;;;;15.07;2.47;;;11.60;99.90;;;;;;5112356;28;20027;-69
2023/03/02 03:18:42;;;;;;;14.70;2.45;;;11.60;99.90;;;;;;5112305;28;20059;-69
2023/03/02 03:21:08;;;;;;;12.32;2.22;;;11.60;99.90;;;;;;5112447;28;20030;-69
2023/03/02 03:23:37;;;;;;;19.10;2.20;;;11.60;99.90;;;;;;5112120;28;20035;-70
2023/03/02 03:26:05;;;;;;;13.65;2.60;;;11.50;99.90;;;;;;5112240;28;20254;-70
2023/03/02 03:28:32;;;;;;;20.45;3.63;;;11.50;99.90;;;;;;5111568;28;20048;-69
2023/03/02 03:30:59;;;;;;;17.95;3.47;;;11.50;99.90;;;;;;5111449;28;20034;-70
2023/03/02 03:33:26;;;;;;;14.73;3.22;;;11.60;99.90;;;;;;5111439;28;20051;-70
2023/03/02 03:35:55;;;;;;;12.63;2.65;;;11.50;99.90;;;;;;5111933;28;20063;-69
2023/03/02 03:38:25;;;;;;;19.17;3.47;;;11.50;99.90;;;;;;5111677;28;20024;-69
2023/03/02 03:40:51;;;;;;;15.93;2.60;;;11.50;99.90;;;;;;5112077;28;20084;-69
2023/03/02 03:43:17;;;;;;;13.50;2.47;;;11.60;99.90;;;;;;5111732;28;20031;-69
2023/03/02 03:45:43;;;;;;;15.02;2.60;;;11.50;99.90;;;;;;5112204;28;20051;-70
2023/03/02 03:48:09;;;;;;;15.17;2.57;;;11.50;99.90;;;;;;5111718;28;20092;-69
2023/03/02 03:50:35;;;;;;;19.27;2.65;;;11.40;99.90;;;;;;5110707;28;20052;-70
2023/03/02 03:53:02;;;;;;;10.57;1.70;;;11.40;99.90;;;;;;5110753;28;20117;-69
2023/03/02 03:55:29;;;;;;;8.13;1.85;;;11.40;99.90;;;;;;5092830;28;20257;-69
2023/03/02 03:57:56;;;;;;;8.63;2.55;;;11.40;99.90;;;;;;5110806;28;20080;-69
2023/03/02 04:00:23;;;;;;;12.17;1.80;;;11.40;99.90;;;;;;5111161;28;20024;-69
2023/03/02 04:02:49;;;;;;;8.25;1.50;;;11.30;99.90;;;;;;5110950;28;20031;-70
2023/03/02 04:05:16;;;;;;;13.05;1.85;;;11.30;99.90;;;;;;5111196;28;20074;-69
2023/03/02 04:07:42;;;;;;;10.00;1.40;;;11.30;99.90;;;;;;5112311;28;20173;-68
2023/03/02 04:10:09;;;;;;;9.95;1.52;;;11.20;99.90;;;;;;5112049;28;20077;-69
2023/03/02 04:12:39;;;;;;;12.55;2.00;;;11.10;99.90;;;;;;5111918;28;20031;-68
2023/03/02 04:15:07;;;;;;;11.35;1.55;;;11.20;99.90;;;;;;5111644;28;20026;-69
2023/03/02 04:17:33;;;;;;;10.40;1.85;;;11.20;99.90;;;;;;5111799;28;20030;-68
2023/03/02 04:19:59;;;;;;;11.77;1.57;;;11.20;99.90;;;;;;5111864;28;20058;-69
2023/03/02 04:22:26;;;;;;;8.97;1.33;;;11.20;99.90;;;;;;5112026;28;20102;-69
2023/03/02 04:24:52;;;;;;;11.20;2.15;;;11.20;99.90;;;;;;5112705;28;20024;-69
2023/03/02 04:27:19;;;;;;;10.57;1.40;;;11.10;99.90;;;;;;5111928;28;20079;-70
2023/03/02 04:29:46;;;;;;;11.43;1.80;;;11.10;99.90;;;;;;5112153;28;20020;-70
2023/03/02 04:32:13;;;;;;;9.23;2.72;;;11.10;99.90;;;;;;5112567;28;20081;-69
2023/03/02 04:34:40;;;;;;;12.25;2.08;;;11.10;99.90;;;;;;5112678;28;20039;-70
2023/03/02 04:37:08;;;;;;;7.40;1.77;;;11.10;99.90;;;;;;5112214;28;20055;-70
2023/03/02 04:39:34;;;;;;;10.70;1.85;;;11.10;99.90;;;;;;5112365;28;20019;-69
2023/03/02 04:42:00;;;;;;;13.02;1.92;;;11.10;99.90;;;;;;5112314;28;20117;-68
2023/03/02 04:44:27;;;;;;;11.95;2.30;;;11.10;99.90;;;;;;5116279;28;20094;-70
2023/03/02 04:46:53;;;;;;;7.57;2.15;;;11.10;99.90;;;;;;5116537;28;20531;-69
2023/03/02 04:49:20;;;;;;;10.30;1.90;;;11.10;99.90;;;;;;5116831;28;20047;-70
2023/03/02 04:51:49;;;;;;;17.77;1.90;;;11.10;99.90;;;;;;5116776;28;20043;-69
2023/03/02 04:54:19;;;;;;;15.70;1.90;;;11.10;99.90;;;;;;5116475;28;20072;-68
2023/03/02 04:56:50;;;;;;;13.10;1.77;;;11.10;99.90;;;;;;5116433;28;20074;-69
2023/03/02 04:59:18;;;;;;;9.63;1.92;;;11.00;99.90;;;;;;5116259;28;20084;-69
2023/03/02 05:01:46;;;;;;;15.15;2.33;;;11.00;99.90;;;;;;5115998;28;20482;-69
2023/03/02 05:04:13;;;;;;;15.30;1.80;;;11.00;99.90;;;;;;5097497;28;20494;-67
2023/03/02 05:06:39;;;;;;;14.88;2.00;;;11.00;99.90;;;;;;5116389;28;20023;-69
2023/03/02 05:09:05;;;;;;;12.57;2.13;;;10.90;99.90;;;;;;5097635;28;20501;-69
2023/03/02 05:11:32;;;;;;;9.68;1.60;;;10.90;99.90;;;;;;5115968;28;20067;-69
2023/03/02 05:14:02;;;;;;;8.95;2.00;;;11.00;99.90;;;;;;5115971;28;20093;-69
2023/03/02 05:16:31;;;;;;;11.73;1.67;;;11.00;99.90;;;;;;5098242;28;20024;-69
2023/03/02 05:18:59;;;;;;;12.05;1.73;;;11.00;99.90;;;;;;5116609;28;20023;-69
2023/03/02 05:21:25;;;;;;;15.77;1.88;;;11.00;99.90;;;;;;5098346;28;20024;-71
2023/03/02 05:23:52;;;;;;;17.17;1.95;;;11.00;99.90;;;;;;5117021;28;20023;-69
2023/03/02 05:26:18;;;;;;;12.43;1.85;;;11.00;99.90;;;;;;5116642;28;20031;-69
2023/03/02 05:28:45;;;;;;;10.73;1.93;;;11.00;99.90;;;;;;5116298;28;20047;-69
2023/03/02 05:31:15;;;;;;;;;;;10.90;99.90;;;;;;5117285;28;20027;-69
2023/03/02 05:33:41;;;;;;;8.85;1.67;;;10.90;99.90;;;;;;5116264;28;20279;-70
2023/03/02 05:36:08;;;;;;;16.30;1.88;;;10.90;99.90;;;;;;5097968;28;20055;-70
2023/03/02 05:38:34;;;;;;;13.45;2.15;;;11.00;99.90;;;;;;5116277;28;20035;-70
2023/03/02 05:41:02;;;;;;;9.03;2.10;;;11.00;99.90;;;;;;5116723;28;20016;-70
2023/03/02 05:43:30;;;;;;;12.80;1.83;;;11.00;99.90;;;;;;5115945;28;20051;-70
2023/03/02 05:45:59;;;;;;;;;;;11.00;99.90;;;;;;5116427;28;20114;-70
2023/03/02 05:48:34;;;;;;;13.13;1.60;;;11.00;99.90;;;;;;5116186;28;19911;-69
2023/03/02 05:51:01;;;;;;;14.63;2.25;;;11.00;99.90;;;;;;5116067;28;20031;-68
2023/03/02 05:53:27;;;;;;;14.48;1.95;;;10.90;99.90;;;;;;5116094;28;20028;-67
2023/03/02 05:55:53;;;;;;;12.18;2.58;;;10.90;99.90;;;;;;5115004;28;20110;-69
2023/03/02 05:58:20;;;;;;;12.88;2.20;;;10.90;99.90;;;;;;5115254;28;20031;-69
2023/03/02 06:00:48;;;;;;;19.77;3.13;;;10.90;99.90;;;;;;5115858;28;20027;-69
2023/03/02 06:03:15;;;;;;;14.02;2.30;;;11.00;99.90;;;;;;5115194;28;20467;-69
2023/03/02 06:05:42;;;;;;;11.05;2.25;;;10.90;99.90;;;;;;5115504;28;20075;-69
2023/03/02 06:08:08;;;;;;;18.50;2.70;;;11.00;99.90;;;;;;5115185;28;20123;-69
2023/03/02 06:10:35;;;;;;;12.77;2.50;;;11.00;99.90;;;;;;5115209;28;20016;-70
2023/03/02 06:13:02;;;;;;;13.38;2.75;;;11.10;99.90;;;;;;5115260;28;20051;-68
2023/03/02 06:15:28;;;;;;;11.65;2.00;;;11.10;99.90;;;;;;5115155;28;20098;-69
2023/03/02 06:17:56;;;;;;;11.23;2.15;;;11.10;99.90;;;;;;5115293;28;20035;-67
2023/03/02 06:20:22;;;;;;;;;;;11.10;99.90;;;;;;5115690;28;20019;-69
2023/03/02 06:22:48;;;;;;;13.18;2.33;;;11.20;99.90;;;;;;5097075;28;20382;-68
2023/03/02 06:25:18;;;;;;;9.47;2.30;;;11.30;99.90;;;;;;5115686;28;20073;-68
2023/03/02 06:27:50;;;;;;;20.75;2.53;;;11.40;99.90;;;;;;5114251;28;20049;-69
2023/03/02 06:30:22;;;;;;;12.20;1.75;;;11.60;99.90;;;;;;5114558;28;20028;-69
2023/03/02 06:32:49;;;;;;;12.63;2.25;;;11.90;99.90;;;;;;5114897;28;20042;-69
2023/03/02 06:35:15;;;;;;;;;;;12.10;99.90;;;;;;5097034;28;20024;-72
2023/03/02 06:37:42;;;;;;;11.88;1.67;;;12.60;99.90;;;;;;5114783;28;19943;-69
2023/03/02 06:40:12;;;;;;;12.60;2.20;;;13.00;99.90;;;;;;5114379;28;20020;-70
2023/03/02 06:42:40;;;;;;;14.32;1.92;;;13.10;99.90;;;;;;5114611;28;20524;-70
2023/03/02 06:45:08;;;;;;;9.68;2.13;;;13.00;99.90;;;;;;5113806;28;20012;-69
2023/03/02 06:47:34;;;;;;;11.30;1.85;;;12.90;99.90;;;;;;5113771;28;20116;-70
2023/03/02 06:50:01;;;;;;;14.85;2.83;;;12.70;99.90;;;;;;5113943;28;20023;-70
2023/03/02 06:52:27;;;;;;;19.58;2.65;;;12.60;99.90;;;;;;5095634;28;20031;-70
2023/03/02 06:54:55;;;;;;;12.88;2.20;;;12.50;99.90;;;;;;5095872;28;20023;-67
2023/03/02 06:57:32;;;;;;;13.55;2.25;;;12.30;99.90;;;;;;5113611;28;20091;-66
2023/03/02 07:00:35;;;;;;;18.67;2.55;;;12.30;99.90;;;;;;5106390;28;20027;-65
2023/03/02 07:03:01;;;;;;;16.70;2.88;;;12.30;99.90;;;;;;5095863;28;20084;-67
2023/03/02 07:05:31;;;;;;;17.73;3.20;;;12.20;99.90;;;;;;5094661;28;20027;-71
2023/03/02 07:07:59;;;;;;;11.63;2.78;;;12.00;99.90;;;;;;5112472;28;20303;-71
2023/03/02 07:10:25;;;;;;;14.27;2.53;;;12.10;99.90;;;;;;5094634;28;20020;-72
2023/03/02 07:12:52;;;;;;;12.57;2.27;;;12.00;99.90;;;;;;5112838;28;20510;-71
2023/03/02 07:15:19;;;;;;;9.85;2.40;;;11.90;99.90;;;;;;5113293;28;20348;-73
2023/03/02 07:17:47;;;;;;;11.52;2.90;;;11.80;99.90;;;;;;5113757;28;20027;-70
2023/03/02 07:20:15;;;;;;;13.23;2.65;;;11.90;99.90;;;;;;5112979;28;20471;-69
2023/03/02 07:22:42;;;;;;;12.00;2.30;;;11.90;99.90;;;;;;5113874;28;20035;-67
2023/03/02 07:25:08;;;;;;;;;;;12.00;99.90;;;;;;5095455;28;20440;-67
2023/03/02 07:27:35;;;;;;;8.70;2.10;;;12.00;99.90;;;;;;5113402;28;20357;-67
2023/03/02 07:30:01;;;;;;;12.20;2.63;;;12.00;99.90;;;;;;5113333;28;20122;-66
2023/03/02 07:32:27;;;;;;;;;;;12.00;99.90;;;;;;5095647;28;20065;-66
2023/03/02 07:34:53;;;;;;;10.93;2.80;;;12.10;99.90;;;;;;5113328;28;20409;-66
2023/03/02 07:37:20;;;;;;;;;;;12.10;99.90;;;;;;5113479;28;20258;-68
2023/03/02 07:39:47;;;;;;;12.07;2.30;;;12.10;99.90;;;;;;5113875;28;19904;-66
2023/03/02 07:42:15;;;;;;;11.02;2.33;;;12.10;99.90;;;;;;5113292;28;20043;-67
2023/03/02 07:44:41;;;;;;;12.60;3.88;;;12.00;99.90;;;;;;5094837;28;20031;-66
2023/03/02 07:47:08;;;;;;;11.43;2.60;;;12.10;99.90;;;;;;5113230;28;20032;-65
2023/03/02 07:49:36;;;;;;;16.35;2.85;;;12.10;99.90;;;;;;5095017;28;20419;-67
2023/03/02 07:52:03;;;;;;;15.57;2.42;;;12.20;99.90;;;;;;5113123;28;20493;-67
2023/03/02 07:54:29;;;;;;;7.53;2.10;;;12.50;99.90;;;;;;5112955;28;20444;-66
2023/03/02 07:56:56;;;;;;;15.50;2.45;;;12.60;99.90;;;;;;5113342;28;20022;-67
2023/03/02 07:59:27;;;;;;;10.35;2.55;;;12.60;99.90;;;;;;5112728;28;20023;-66
2023/03/02 08:01:53;;;;;;;11.88;3.17;;;13.00;99.90;;;;;;5112976;28;20483;-67
2023/03/02 08:04:19;;;;;;;13.83;3.03;;;13.80;99.90;;;;;;5112765;28;20031;-66
2023/03/02 08:06:46;;;;;;;10.55;2.90;;;14.50;99.90;;;;;;5112544;28;20297;-67
2023/03/02 08:09:13;;;;;;;10.77;2.27;;;15.20;99.90;;;;;;5113010;28;20427;-67
2023/03/02 08:11:40;;;;;;;13.40;3.30;;;15.80;99.90;;;;;;5094504;28;20059;-67
2023/03/02 08:14:07;;;;;;;16.27;4.00;;;16.10;99.90;;;;;;5112625;28;20085;-67
2023/03/02 08:16:34;;;;;;;15.88;2.92;;;16.60;99.90;;;;;;5113047;28;20043;-67
2023/03/02 08:19:00;;;;;;;17.60;3.88;;;16.60;99.90;;;;;;5112468;28;20023;-66
2023/03/02 08:21:28;;;;;;;26.13;3.80;;;16.70;99.90;;;;;;5112752;28;20460;-68
2023/03/02 08:23:54;;;;;;;16.70;2.83;;;16.60;99.90;;;;;;5112250;28;20023;-66
2023/03/02 08:26:20;;;;;;;15.25;2.70;;;17.00;99.90;;;;;;5112534;28;20490;-68
2023/03/02 08:28:48;;;;;;;17.63;3.45;;;17.20;99.90;;;;;;5111783;28;20124;-69
2023/03/02 08:31:15;;;;;;;11.27;2.05;;;16.90;99.90;;;;;;5112298;28;20031;-67
2023/03/02 08:33:44;;;;;;;16.35;2.72;;;17.10;99.90;;;;;;5112349;28;20059;-67
2023/03/02 08:36:15;;;;;;;14.38;2.85;;;17.00;99.90;;;;;;5112298;28;20023;-67
2023/03/02 08:38:45;;;;;;;10.75;2.25;;;16.60;99.90;;;;;;5112174;28;20044;-65
2023/03/02 08:41:16;;;;;;;11.27;2.70;;;16.40;99.90;;;;;;5111926;28;20032;-65
2023/03/02 08:43:43;;;;;;;12.38;2.25;;;16.40;99.90;;;;;;5111913;28;20544;-66
2023/03/02 08:46:12;;;;;;;14.65;4.25;;;16.10;99.90;;;;;;5112005;28;20073;-67
2023/03/02 08:48:38;;;;;;;13.85;3.03;;;15.80;99.90;;;;;;5112082;28;20063;-64
2023/03/02 08:51:14;;;;;;;19.30;3.40;;;15.50;99.90;;;;;;5112366;28;20139;-68
2023/03/02 08:53:46;;;;;;;12.40;2.78;;;15.00;99.90;;;;;;5112431;28;20027;-67
2023/03/02 08:56:27;;;;;;;13.73;2.70;;;14.60;99.90;;;;;;5049851;28;20059;-66
2023/03/02 08:59:01;;;;;;;9.23;2.22;;;14.30;99.90;;;;;;5048994;28;20037;-66
2023/03/02 09:01:32;;;;;;;18.95;3.00;;;14.30;99.90;;;;;;5031761;28;20032;-65
2023/03/02 09:04:00;;;;;;;16.35;2.80;;;14.50;99.90;;;;;;5031676;28;20040;-66
2023/03/02 09:06:28;;;;;;;19.20;2.97;;;14.70;99.90;;;;;;5048874;28;20021;-66
2023/03/02 09:08:55;;;;;;;12.65;2.97;;;14.80;99.90;;;;;;5048738;28;20029;-67
2023/03/02 09:11:21;;;;;;;14.48;2.97;;;14.80;99.90;;;;;;5048753;28;20120;-65
2023/03/02 09:13:48;;;;;;;9.73;2.50;;;14.70;99.90;;;;;;5032811;28;20076;-67
2023/03/02 09:16:15;;;;;;;12.00;3.20;;;14.80;99.90;;;;;;5049104;28;20029;-64
2023/03/02 09:18:40;;;;;;;;;;;14.70;99.90;;;;;;5049884;28;20029;-66
2023/03/02 09:21:07;;;;;;;12.23;2.45;;;14.90;99.90;;;;;;5049467;28;19927;-66
2023/03/02 09:23:36;;;;;;;14.48;2.85;;;14.90;99.90;;;;;;5049650;28;20033;-66
2023/03/02 09:26:03;;;;;;;11.90;2.22;;;14.80;99.90;;;;;;5049786;28;20025;-67
2023/03/02 09:28:29;;;;;;;11.27;2.10;;;14.30;99.90;;;;;;5049118;28;20064;-66
2023/03/02 09:31:01;;;;;;;12.15;1.98;;;14.30;99.90;;;;;;5052179;28;20120;-66
2023/03/02 09:33:28;;;;;;;14.23;2.65;;;14.50;99.90;;;;;;5052813;28;20488;-67
2023/03/02 09:35:54;;;;;;;9.20;2.08;;;14.50;99.90;;;;;;5052935;28;20040;-67
2023/03/02 09:38:20;;;;;;;19.93;2.33;;;14.60;99.90;;;;;;5053580;28;20037;-67
2023/03/02 09:41:19;;;;;;;10.20;2.50;;;14.90;99.90;;;;;;5052649;28;20029;-66
2023/03/02 09:44:15;;;;;;;13.35;2.50;;;15.30;99.90;;;;;;5036184;28;20037;-67
2023/03/02 09:46:44;;;;;;;10.88;2.58;;;15.20;99.90;;;;;;5078356;28;20101;-66
2023/03/02 09:49:38;;;;;;;18.65;3.08;;;15.40;99.90;;;;;;5095136;28;20073;-62
2023/03/02 09:52:21;;;;;;;17.75;5.50;;;15.80;99.90;;;;;;5094587;28;20056;-62
2023/03/02 09:54:48;;;;;;;12.05;2.33;;;16.20;99.90;;;;;;5084338;28;20052;-62
2023/03/02 09:57:38;;;;;;;12.10;2.70;;;16.40;99.90;;;;;;5086638;28;20478;-66
2023/03/02 10:00:23;;;;;;;17.27;2.70;;;16.70;99.90;;;;;;5094839;28;20020;-63
2023/03/02 10:03:01;;;;;;;11.95;2.33;;;16.80;99.90;;;;;;5088843;28;20100;-63
2023/03/02 10:05:37;;;;;;;13.45;2.00;;;16.60;99.90;;;;;;5082138;28;20082;-67
2023/03/02 10:08:04;;;;;;;21.17;3.15;;;16.50;99.90;;;;;;5081965;28;20040;-67
2023/03/02 10:10:44;;;;;;;14.40;2.80;;;16.20;99.90;;;;;;5083602;28;20039;-67
2023/03/02 10:13:22;;;;;;;11.45;2.08;;;15.60;99.90;;;;;;5082535;28;20078;-65
2023/03/02 10:16:01;;;;;;;19.05;2.90;;;15.60;99.90;;;;;;5081972;28;20020;-67
2023/03/02 10:18:34;;;;;;;19.33;3.17;;;16.10;99.90;;;;;;5079850;28;20469;-67
2023/03/02 10:21:34;;;;;;;16.08;2.35;;;16.20;99.90;;;;;;5073856;28;20055;-67
2023/03/02 10:24:15;;;;;;;21.40;2.97;;;16.60;99.90;;;;;;5073835;28;20032;-66
2023/03/02 10:26:46;;;;;;;14.43;2.40;;;16.50;99.90;;;;;;5076382;28;20502;-65
2023/03/02 10:29:42;;;;;;;13.90;2.53;;;16.90;99.90;;;;;;5093567;28;20040;-65
2023/03/02 10:32:28;;;;;;;17.98;2.65;;;17.30;99.90;;;;;;5094018;28;20024;-66
2023/03/02 10:35:01;;;;;;;15.63;2.90;;;17.50;99.90;;;;;;5094048;28;20020;-69
2023/03/02 10:37:31;;;;;;;19.80;2.80;;;17.80;99.90;;;;;;5093965;28;20104;-67
2023/03/02 10:39:57;;;;;;;15.60;2.33;;;17.50;99.90;;;;;;5093890;28;20027;-63
2023/03/02 10:42:34;;;;;;;12.55;2.05;;;17.20;99.90;;;;;;5092090;28;20514;-66
2023/03/02 10:45:33;;;;;;;17.20;2.35;;;16.70;99.90;;;;;;5093204;28;20027;-66
2023/03/02 10:48:09;;;;;;;12.60;2.58;;;16.80;99.90;;;;;;5034399;28;20072;-66
2023/03/02 10:50:36;;;;;;;15.40;2.83;;;17.20;99.90;;;;;;5051052;28;20065;-66
2023/03/02 10:53:07;;;;;;;20.48;6.75;;;16.70;99.90;;;;;;5034599;28;20389;-69
2023/03/02 10:55:34;;;;;;;19.10;4.45;;;16.80;99.90;;;;;;5050520;28;20029;-67
2023/03/02 10:58:18;;;;;;;;;;;17.30;99.90;;;;;;5051074;28;20040;-66
2023/03/02 11:00:58;;;;;;;14.23;2.38;;;17.10;99.90;;;;;;5050795;28;20321;-66
2023/03/02 11:03:44;;;;;;;12.60;2.42;;;17.30;99.90;;;;;;5050735;28;20179;-67
2023/03/02 11:06:24;;;;;;;17.45;2.45;;;17.50;99.90;;;;;;5051789;28;20128;-66
2023/03/02 11:08:59;;;;;;;11.10;2.15;;;17.50;99.90;;;;;;5051217;28;20037;-67
2023/03/02 11:11:25;;;;;;;12.75;2.33;;;17.70;99.90;;;;;;5050957;28;20469;-67
2023/03/02 11:13:51;;;;;;;14.35;2.40;;;17.90;99.90;;;;;;5050390;28;20505;-66
2023/03/02 11:16:22;;;;;;;11.23;2.33;;;17.80;99.90;;;;;;5051240;28;20033;-69
2023/03/02 11:19:21;;;;;;;12.85;2.40;;;17.70;99.90;;;;;;5050705;28;20036;-67
2023/03/02 11:21:57;;;;;;;18.35;3.58;;;17.80;99.90;;;;;;5050037;28;20076;-67
2023/03/02 11:24:45;;;;;;;14.52;4.95;;;17.80;99.90;;;;;;5069742;28;20557;-67
2023/03/02 11:27:15;;;;;;;11.63;2.70;;;17.90;99.90;;;;;;5084296;28;20466;-66
2023/03/02 11:29:51;;;;;;;14.90;2.63;;;17.80;99.90;;;;;;5112767;28;20042;-66
2023/03/02 11:32:51;;;;;;;18.48;2.40;;;17.90;99.90;;;;;;5113033;28;20016;-67
2023/03/02 11:36:14;;;;;;;9.52;1.95;;;17.80;99.90;;;;;;5112666;28;20138;-67
2023/03/02 11:38:55;;;;;;;11.85;2.28;;;17.90;99.90;;;;;;5010660;28;20088;-66
2023/03/02 11:41:31;;;;;;;10.60;2.40;;;18.00;99.90;;;;;;5010489;28;20025;-67
2023/03/02 11:44:16;;;;;;;15.52;2.38;;;17.50;99.90;;;;;;4994921;28;20042;-68
2023/03/02 11:46:47;;;;;;;14.00;2.35;;;17.20;99.90;;;;;;5010582;28;20042;-67
2023/03/02 11:49:22;;;;;;;17.58;4.47;;;17.20;99.90;;;;;;4993524;28;20478;-67
2023/03/02 11:51:59;;;;;;;48.08;24.83;;;17.30;99.90;;;;;;5010208;28;20037;-68
2023/03/02 11:54:44;;;;;;;19.38;8.25;;;17.30;99.90;;;;;;5010525;28;20049;-67
2023/03/02 11:57:44;;;;;;;15.90;3.70;;;17.60;99.90;;;;;;5010782;28;20425;-65
2023/03/02 12:00:42;;;;;;;17.73;4.90;;;17.70;99.90;;;;;;5010130;28;20042;-67
2023/03/02 12:03:33;;;;;;;20.05;4.85;;;17.80;99.90;;;;;;4931714;29;20500;-66
2023/03/02 12:06:27;;;;;;;16.55;3.42;;;17.50;99.90;;;;;;4932267;29;20640;-67
2023/03/02 12:09:29;;;;;;;14.45;2.85;;;17.80;99.90;;;;;;4943630;28;20043;-65
2023/03/02 12:12:17;;;;;;;14.00;2.05;;;17.80;99.90;;;;;;4968693;28;20386;-66
2023/03/02 12:15:24;;;;;;;12.95;4.40;;;17.90;99.90;;;;;;4976017;28;20037;-62
2023/03/02 12:17:50;;;;;;;15.30;3.25;;;17.80;99.90;;;;;;4990010;28;20030;-66
2023/03/02 12:20:19;;;;;;;11.68;3.60;;;17.50;99.90;;;;;;4990733;28;20431;-65
2023/03/02 12:22:46;;;;;;;14.50;3.22;;;17.40;99.90;;;;;;4974274;28;20035;-67
2023/03/02 12:25:28;;;;;;;17.02;4.18;;;17.50;99.90;;;;;;4990633;28;20046;-66
2023/03/02 12:27:55;;;;;;;14.02;3.08;;;17.50;99.90;;;;;;4990398;28;20057;-66
2023/03/02 12:30:26;;;;;;;12.40;2.97;;;17.60;99.90;;;;;;4990686;28;20035;-67
2023/03/02 12:33:16;;;;;;;17.80;4.55;;;17.80;99.90;;;;;;4990828;28;20610;-66
2023/03/02 12:35:46;;;;;;;16.60;3.80;;;17.60;99.90;;;;;;4996846;28;20038;-69
2023/03/02 12:38:28;;;;;;;14.02;3.40;;;17.60;99.90;;;;;;5039165;28;20051;-66
2023/03/02 12:41:26;;;;;;;6.97;1.63;;;17.80;99.90;;;;;;5111631;28;20098;-67
2023/03/02 12:44:06;;;;;;;14.77;2.38;;;18.10;99.90;;;;;;5101824;28;20035;-68
2023/03/02 12:46:34;;;;;;;10.73;2.42;;;18.00;99.90;;;;;;5112786;28;20344;-66
2023/03/02 12:49:13;;;;;;;10.95;2.90;;;17.80;99.90;;;;;;5112432;28;20032;-67
2023/03/02 12:51:57;;;;;;;16.90;2.50;;;17.40;99.90;;;;;;5089033;28;20028;-67
2023/03/02 12:54:26;;;;;;;12.50;3.33;;;17.20;99.90;;;;;;5090514;28;20055;-66
2023/03/02 12:57:05;;;;;;;12.70;2.70;;;17.20;99.90;;;;;;5108996;28;20028;-67
2023/03/02 12:59:33;;;;;;;8.15;2.58;;;17.00;99.90;;;;;;5111810;28;20020;-67
2023/03/02 13:02:32;;;;;;;11.43;3.53;;;16.90;99.90;;;;;;5110133;28;20031;-66